createdAt,value
2023-04-10T00:01:36.836Z,6.67
2023-04-10T00:04:05.477Z,6.67
2023-04-10T00:06:34.559Z,6.68
2023-04-10T00:09:02.294Z,6.70
2023-04-10T00:11:30.176Z,6.73
2023-04-10T00:13:57.427Z,6.71
2023-04-10T00:16:25.109Z,6.70
2023-04-10T00:18:52.425Z,6.71
2023-04-10T00:21:19.593Z,6.71
2023-04-10T00:23:46.991Z,6.72
2023-04-10T00:26:14.610Z,6.73
2023-04-10T00:28:41.761Z,6.74
2023-04-10T00:31:09.308Z,6.74
2023-04-10T00:33:36.957Z,6.70
2023-04-10T00:36:04.441Z,6.70
2023-04-10T00:38:32.309Z,6.71
2023-04-10T00:40:59.515Z,6.69
2023-04-10T00:43:26.798Z,6.70
2023-04-10T00:45:54.449Z,6.72
2023-04-10T00:48:21.596Z,6.74
2023-04-10T00:50:48.760Z,6.76
2023-04-10T00:53:17.127Z,6.77
2023-04-10T00:55:45.327Z,6.80
2023-04-10T00:58:14.823Z,6.79
2023-04-10T01:03:22.398Z,6.81
2023-04-10T01:05:57.051Z,6.81
2023-04-10T01:08:37.953Z,6.78
2023-04-10T01:11:14.205Z,6.77
2023-04-10T01:13:41.157Z,6.75
2023-04-10T01:16:25.920Z,6.71
2023-04-10T01:19:45.370Z,6.71
2023-04-10T01:22:17.126Z,6.71
2023-04-10T01:25:10.803Z,6.71
2023-04-10T01:28:00.375Z,6.73
2023-04-10T01:30:29.341Z,6.75
2023-04-10T01:33:00.073Z,6.76
2023-04-10T01:35:30.064Z,6.78
2023-04-10T01:38:00.213Z,6.82
2023-04-10T01:40:29.998Z,6.84
2023-04-10T01:42:59.694Z,6.88
2023-04-10T01:45:32.159Z,6.88
2023-04-10T01:47:59.954Z,6.86
2023-04-10T01:50:29.645Z,6.86
2023-04-10T01:52:57.967Z,6.86
2023-04-10T01:55:26.223Z,6.85
2023-04-10T01:57:55.234Z,6.81
2023-04-10T02:00:23.297Z,6.80
2023-04-10T02:02:51.421Z,6.81
2023-04-10T02:05:19.424Z,6.82
2023-04-10T02:08:06.282Z,6.80
2023-04-10T02:10:43.768Z,6.78
2023-04-10T02:13:13.924Z,6.76
2023-04-10T02:15:44.987Z,6.76
2023-04-10T02:18:16.265Z,6.74
2023-04-10T02:20:44.543Z,6.72
2023-04-10T02:23:12.469Z,6.71
2023-04-10T02:25:39.793Z,6.69
2023-04-10T02:28:08.419Z,6.68
2023-04-10T02:30:36.681Z,6.70
2023-04-10T02:33:03.885Z,6.72
2023-04-10T02:35:31.394Z,6.73
2023-04-10T02:37:58.670Z,6.74
2023-04-10T02:40:25.923Z,6.76
2023-04-10T02:42:53.562Z,6.77
2023-04-10T02:45:20.909Z,6.78
2023-04-10T02:47:48.146Z,6.77
2023-04-10T02:50:15.424Z,6.77
2023-04-10T02:52:42.850Z,6.75
2023-04-10T02:55:10.899Z,6.71
2023-04-10T02:57:38.368Z,6.70
2023-04-10T03:00:06.551Z,6.70
2023-04-10T03:02:34.296Z,6.70
2023-04-10T03:05:02.983Z,6.70
2023-04-10T03:07:30.518Z,6.71
2023-04-10T03:09:57.728Z,6.73
2023-04-10T03:12:25.408Z,6.72
2023-04-10T03:14:53.353Z,6.74
2023-04-10T03:17:20.705Z,6.76
2023-04-10T03:19:47.915Z,6.74
2023-04-10T03:22:15.374Z,6.75
2023-04-10T03:24:42.484Z,6.72
2023-04-10T03:27:09.754Z,6.65
2023-04-10T03:29:37.647Z,6.63
2023-04-10T03:32:04.966Z,6.63
2023-04-10T03:34:32.200Z,6.65
2023-04-10T03:36:59.754Z,6.69
2023-04-10T03:39:27.089Z,6.70
2023-04-10T03:41:54.290Z,6.73
2023-04-10T03:44:23.407Z,6.73
2023-04-10T03:46:51.012Z,6.71
2023-04-10T03:49:18.335Z,6.71
2023-04-10T03:51:45.972Z,6.73
2023-04-10T03:54:13.231Z,6.73
2023-04-10T03:56:40.513Z,6.74
2023-04-10T03:59:07.578Z,6.75
2023-04-10T04:01:35.256Z,6.75
2023-04-10T04:04:02.733Z,6.76
2023-04-10T04:06:30.637Z,6.77
2023-04-10T04:08:58.284Z,6.78
2023-04-10T04:11:25.455Z,6.79
2023-04-10T04:13:53.457Z,6.79
2023-04-10T04:16:21.493Z,6.78
2023-04-10T04:18:48.747Z,6.79
2023-04-10T04:21:17.064Z,6.78
2023-04-10T04:23:44.909Z,6.78
2023-04-10T04:26:12.191Z,6.79
2023-04-10T04:28:39.858Z,6.77
2023-04-10T04:31:09.315Z,6.78
2023-04-10T04:33:36.562Z,6.81
2023-04-10T04:36:04.541Z,6.82
2023-04-10T04:38:31.985Z,6.81
2023-04-10T04:40:59.256Z,6.81
2023-04-10T04:43:27.388Z,6.79
2023-04-10T04:45:54.981Z,6.78
2023-04-10T04:48:22.287Z,6.78
2023-04-10T04:50:49.824Z,6.78
2023-04-10T04:53:17.420Z,6.82
2023-04-10T04:55:44.680Z,6.78
2023-04-10T04:58:12.257Z,6.75
2023-04-10T05:00:40.150Z,6.73
2023-04-10T05:03:07.435Z,6.68
2023-04-10T05:05:35.239Z,6.68
2023-04-10T05:08:02.908Z,6.67
2023-04-10T05:10:30.123Z,6.67
2023-04-10T05:12:57.459Z,6.70
2023-04-10T05:15:24.800Z,6.71
2023-04-10T05:17:53.554Z,6.71
2023-04-10T05:20:22.633Z,6.69
2023-04-10T05:22:51.768Z,6.64
2023-04-10T05:25:19.232Z,6.64
2023-04-10T05:27:46.831Z,6.64
2023-04-10T05:30:14.226Z,6.64
2023-04-10T05:32:41.549Z,6.63
2023-04-10T05:35:09.507Z,6.62
2023-04-10T05:37:37.101Z,6.62
2023-04-10T05:40:04.873Z,6.64
2023-04-10T05:42:32.520Z,6.67
2023-04-10T05:45:00.217Z,6.71
2023-04-10T05:47:27.439Z,6.73
2023-04-10T05:49:55.060Z,6.77
2023-04-10T05:52:22.497Z,6.76
2023-04-10T05:54:49.821Z,6.74
2023-04-10T05:57:17.398Z,6.76
2023-04-10T05:59:45.045Z,6.81
2023-04-10T06:02:12.576Z,6.85
2023-04-10T06:04:39.944Z,6.89
2023-04-10T06:07:07.309Z,6.90
2023-04-10T06:09:34.451Z,6.92
2023-04-10T06:12:01.813Z,6.97
2023-04-10T06:14:29.091Z,7.02
2023-04-10T06:16:56.991Z,7.04
2023-04-10T06:19:24.667Z,7.07
2023-04-10T06:21:53.921Z,7.07
2023-04-10T06:24:22.228Z,7.07
2023-04-10T06:26:50.000Z,7.08
2023-04-10T06:29:17.352Z,7.09
2023-04-10T06:31:45.094Z,7.11
2023-04-10T06:34:12.659Z,7.12
2023-04-10T06:36:40.086Z,7.12
2023-04-10T06:39:07.525Z,7.15
2023-04-10T06:41:34.978Z,7.18
2023-04-10T06:44:03.393Z,7.22
2023-04-10T06:46:31.069Z,7.28
2023-04-10T06:48:58.959Z,7.31
2023-04-10T06:51:26.619Z,7.35
2023-04-10T06:53:54.320Z,7.37
2023-04-10T06:56:22.173Z,7.38
2023-04-10T06:58:49.534Z,7.39
2023-04-10T07:01:18.232Z,7.41
2023-04-10T07:03:46.116Z,7.43
2023-04-10T07:06:13.823Z,7.43
2023-04-10T07:08:41.810Z,7.44
2023-04-10T07:11:09.428Z,7.45
2023-04-10T07:13:39.296Z,7.48
2023-04-10T07:16:08.847Z,7.49
2023-04-10T07:18:39.224Z,7.51
2023-04-10T07:21:13.464Z,7.54
2023-04-10T07:23:41.496Z,7.58
2023-04-10T07:26:08.769Z,7.59
2023-04-10T07:28:37.004Z,7.63
2023-04-10T07:31:04.949Z,7.63
2023-04-10T07:33:32.405Z,7.65
2023-04-10T07:36:00.190Z,7.72
2023-04-10T07:38:28.207Z,7.76
2023-04-10T07:41:02.012Z,7.82
2023-04-10T07:43:29.814Z,7.87
2023-04-10T07:45:57.589Z,7.91
2023-04-10T07:48:25.526Z,7.89
2023-04-10T07:50:54.080Z,7.93
2023-04-10T07:53:21.334Z,8.05
2023-04-10T07:55:50.707Z,8.17
2023-04-10T07:58:18.401Z,8.17
2023-04-10T08:00:46.009Z,8.19
2023-04-10T08:03:15.439Z,8.23
2023-04-10T08:05:43.195Z,8.23
2023-04-10T08:08:10.656Z,8.22
2023-04-10T08:10:39.666Z,8.21
2023-04-10T08:13:07.453Z,8.24
2023-04-10T08:15:35.009Z,8.23
2023-04-10T08:18:02.408Z,8.22
2023-04-10T08:20:30.273Z,8.25
2023-04-10T08:25:45.373Z,8.31
2023-04-10T08:28:12.593Z,8.34
2023-04-10T08:30:40.015Z,8.38
2023-04-10T08:33:07.562Z,8.42
2023-04-10T08:35:35.024Z,8.48
2023-04-10T08:38:12.626Z,8.53
2023-04-10T08:40:42.168Z,8.59
2023-04-10T08:43:09.375Z,8.65
2023-04-10T08:45:36.810Z,8.68
2023-04-10T08:48:07.110Z,8.72
2023-04-10T08:50:37.462Z,8.77
2023-04-10T08:53:11.602Z,8.79
2023-04-10T08:55:40.906Z,8.89
2023-04-10T08:58:08.925Z,8.99
2023-04-10T09:00:39.219Z,9.09
2023-04-10T09:03:12.175Z,9.20
2023-04-10T09:05:39.680Z,9.27
2023-04-10T09:08:08.813Z,9.32
2023-04-10T09:10:36.139Z,9.34
2023-04-10T09:13:03.473Z,9.40
2023-04-10T09:15:30.942Z,9.46
2023-04-10T09:18:00.934Z,9.50
2023-04-10T09:20:31.627Z,9.59
2023-04-10T09:22:59.273Z,9.63
2023-04-10T09:25:36.146Z,9.67
2023-04-10T09:28:08.740Z,9.72
2023-04-10T09:30:37.337Z,9.78
2023-04-10T09:33:27.406Z,9.84
2023-04-10T09:35:58.369Z,9.88
2023-04-10T09:38:26.195Z,9.93
2023-04-10T09:40:54.421Z,9.99
2023-04-10T09:43:25.186Z,10.04
2023-04-10T09:45:53.614Z,10.07
2023-04-10T09:48:22.415Z,10.10
2023-04-10T09:50:50.050Z,10.16
2023-04-10T09:53:20.390Z,10.21
2023-04-10T09:55:49.689Z,10.24
2023-04-10T09:58:18.261Z,10.29
2023-04-10T10:00:47.524Z,10.38
2023-04-10T10:03:16.977Z,10.50
2023-04-10T10:05:51.408Z,10.61
2023-04-10T10:08:18.820Z,10.71
2023-04-10T10:10:55.421Z,10.78
2023-04-10T10:13:48.767Z,10.82
2023-04-10T10:16:28.092Z,10.85
2023-04-10T10:19:13.082Z,10.90
2023-04-10T10:21:43.393Z,11.02
2023-04-10T10:24:13.044Z,11.14
2023-04-10T10:26:40.961Z,11.27
2023-04-10T10:29:14.200Z,11.40
2023-04-10T10:31:42.449Z,11.39
2023-04-10T10:34:10.179Z,11.35
2023-04-10T10:36:38.686Z,11.33
2023-04-10T10:39:23.484Z,11.36
2023-04-10T10:42:02.723Z,11.40
2023-04-10T10:44:43.528Z,11.44
2023-04-10T10:47:25.435Z,11.50
2023-04-10T10:50:01.241Z,11.56
2023-04-10T10:52:50.312Z,11.67
2023-04-10T10:55:33.029Z,11.84
2023-04-10T10:58:05.903Z,12.04
2023-04-10T11:00:59.830Z,12.14
2023-04-10T11:03:31.091Z,12.14
2023-04-10T11:06:04.278Z,12.18
2023-04-10T11:08:35.006Z,12.16
2023-04-10T11:11:08.983Z,12.14
2023-04-10T11:13:39.192Z,12.12
2023-04-10T11:16:10.489Z,12.12
2023-04-10T11:18:49.618Z,12.25
2023-04-10T11:21:22.633Z,12.62
2023-04-10T11:23:56.710Z,13.01
2023-04-10T11:26:37.189Z,13.51
2023-04-10T11:29:20.510Z,14.01
2023-04-10T11:31:59.603Z,14.16
2023-04-10T11:34:28.320Z,14.26
2023-04-10T11:36:56.154Z,14.26
2023-04-10T11:39:23.465Z,14.22
2023-04-10T11:41:53.210Z,14.25
2023-04-10T11:44:32.360Z,14.32
2023-04-10T11:47:00.080Z,14.37
2023-04-10T11:49:37.544Z,14.40
2023-04-10T11:52:05.397Z,14.34
2023-04-10T11:54:33.030Z,14.31
2023-04-10T11:57:07.976Z,14.29
2023-04-10T11:59:35.881Z,14.19
2023-04-10T12:02:16.881Z,14.10
2023-04-10T12:04:45.325Z,14.13
2023-04-10T12:07:13.187Z,14.20
2023-04-10T12:09:41.157Z,14.39
2023-04-10T12:12:09.039Z,14.62
2023-04-10T12:14:42.738Z,14.94
2023-04-10T12:17:11.746Z,15.15
2023-04-10T12:19:40.998Z,15.33
2023-04-10T12:22:09.456Z,15.58
2023-04-10T12:24:51.224Z,15.78
2023-04-10T12:27:29.836Z,16.00
2023-04-10T12:29:59.302Z,15.85
2023-04-10T12:32:29.649Z,15.63
2023-04-10T12:34:58.253Z,15.71
2023-04-10T12:37:46.717Z,15.66
2023-04-10T12:40:15.328Z,15.60
2023-04-10T12:42:43.526Z,15.66
2023-04-10T12:45:14.293Z,15.67
2023-04-10T12:47:47.641Z,15.76
2023-04-10T12:50:16.900Z,16.04
2023-04-10T12:52:46.556Z,16.17
2023-04-10T12:55:18.723Z,16.04
2023-04-10T12:57:47.974Z,16.01
2023-04-10T13:00:17.785Z,16.09
2023-04-10T13:02:47.013Z,16.18
2023-04-10T13:05:15.411Z,16.13
2023-04-10T13:07:43.331Z,15.97
2023-04-10T13:10:10.861Z,15.84
2023-04-10T13:12:39.375Z,15.69
2023-04-10T13:15:08.283Z,15.67
2023-04-10T13:17:37.671Z,15.90
2023-04-10T13:20:05.764Z,16.00
2023-04-10T13:22:32.889Z,16.00
2023-04-10T13:25:00.235Z,16.01
2023-04-10T13:27:27.509Z,16.05
2023-04-10T13:29:56.043Z,15.94
2023-04-10T13:32:23.897Z,15.76
2023-04-10T13:34:51.287Z,15.55
2023-04-10T13:37:18.578Z,15.27
2023-04-10T13:39:46.023Z,15.09
2023-04-10T13:42:14.285Z,15.15
2023-04-10T13:44:44.343Z,15.39
2023-04-10T13:47:12.158Z,15.59
2023-04-10T13:49:39.767Z,15.87
2023-04-10T13:52:07.148Z,16.00
2023-04-10T13:54:34.926Z,15.93
2023-04-10T13:57:03.357Z,15.88
2023-04-10T13:59:31.154Z,15.83
2023-04-10T14:01:58.901Z,15.83
2023-04-10T14:04:26.170Z,16.10
2023-04-10T14:06:58.155Z,16.36
2023-04-10T14:09:25.568Z,16.59
2023-04-10T14:11:52.815Z,16.88
2023-04-10T14:14:20.009Z,17.21
2023-04-10T14:16:47.677Z,17.42
2023-04-10T14:19:14.899Z,17.49
2023-04-10T14:21:44.425Z,17.55
2023-04-10T14:24:12.364Z,17.45
2023-04-10T14:26:40.317Z,17.26
2023-04-10T14:29:09.154Z,17.07
2023-04-10T14:31:44.196Z,16.71
2023-04-10T14:34:22.871Z,16.45
2023-04-10T14:36:50.565Z,16.27
2023-04-10T14:39:17.857Z,16.15
2023-04-10T14:41:45.073Z,16.05
2023-04-10T14:44:12.710Z,15.97
2023-04-10T14:46:39.920Z,15.83
2023-04-10T14:49:07.153Z,15.71
2023-04-10T14:51:34.883Z,15.55
2023-04-10T14:54:04.775Z,15.32
2023-04-10T14:56:32.111Z,14.99
2023-04-10T14:59:00.155Z,14.73
2023-04-10T15:01:27.592Z,14.51
2023-04-10T15:03:55.164Z,14.31
2023-04-10T15:06:23.630Z,14.14
2023-04-10T15:08:51.348Z,13.96
2023-04-10T15:11:18.594Z,13.77
2023-04-10T15:13:47.939Z,13.59
2023-04-10T15:16:15.236Z,13.38
2023-04-10T15:18:42.452Z,13.20
2023-04-10T15:21:10.214Z,13.02
2023-04-10T15:23:37.497Z,12.87
2023-04-10T15:26:04.901Z,12.75
2023-04-10T15:28:32.895Z,12.67
2023-04-10T15:31:00.232Z,12.63
2023-04-10T15:33:27.518Z,12.53
2023-04-10T15:35:55.720Z,12.41
2023-04-10T15:38:26.615Z,12.27
2023-04-10T15:40:53.964Z,12.15
2023-04-10T15:43:21.892Z,12.05
2023-04-10T15:45:49.213Z,11.96
2023-04-10T15:48:16.764Z,11.92
2023-04-10T15:50:44.145Z,11.92
2023-04-10T15:53:11.401Z,11.88
2023-04-10T15:55:41.619Z,11.82
2023-04-10T15:58:08.887Z,11.76
2023-04-10T16:00:36.391Z,11.59
2023-04-10T16:03:03.969Z,11.50
2023-04-10T16:05:31.813Z,11.45
2023-04-10T16:07:59.105Z,11.46
2023-04-10T16:10:26.485Z,11.46
2023-04-10T16:12:54.379Z,11.44
2023-04-10T16:15:21.675Z,11.42
2023-04-10T16:17:49.103Z,11.40
2023-04-10T16:20:16.363Z,11.34
2023-04-10T16:22:43.664Z,11.27
2023-04-10T16:25:11.163Z,11.21
2023-04-10T16:27:38.910Z,11.19
2023-04-10T16:30:07.002Z,11.17
2023-04-10T16:32:34.874Z,11.15
2023-04-10T16:35:02.791Z,11.12
2023-04-10T16:37:30.123Z,11.09
2023-04-10T16:39:57.482Z,11.06
2023-04-10T16:42:24.851Z,11.01
2023-04-10T16:44:53.031Z,10.96
2023-04-10T16:47:20.415Z,10.91
2023-04-10T16:49:48.496Z,10.85
2023-04-10T16:52:15.841Z,10.80
2023-04-10T16:54:43.113Z,10.75
2023-04-10T16:57:11.119Z,10.68
2023-04-10T16:59:38.602Z,10.64
2023-04-10T17:02:05.961Z,10.60
2023-04-10T17:04:33.218Z,10.58
2023-04-10T17:07:00.977Z,10.55
2023-04-10T17:09:28.326Z,10.54
2023-04-10T17:11:56.525Z,10.50
2023-04-10T17:14:23.790Z,10.48
2023-04-10T17:16:51.146Z,10.45
2023-04-10T17:19:18.752Z,10.42
2023-04-10T17:21:46.558Z,10.39
2023-04-10T17:24:13.791Z,10.35
2023-04-10T17:26:41.986Z,10.31
2023-04-10T17:29:09.276Z,10.26
2023-04-10T17:31:36.811Z,10.21
2023-04-10T17:34:04.662Z,10.16
2023-04-10T17:36:33.075Z,10.10
2023-04-10T17:39:01.070Z,10.04
2023-04-10T17:41:28.574Z,9.97
2023-04-10T17:43:56.455Z,9.91
2023-04-10T17:46:24.008Z,9.84
2023-04-10T17:48:51.459Z,9.78
2023-04-10T17:51:19.269Z,9.71
2023-04-10T17:53:47.304Z,9.66
2023-04-10T17:56:22.494Z,9.59
2023-04-10T17:58:50.136Z,9.50
2023-04-10T18:01:27.081Z,9.43
2023-04-10T18:03:54.801Z,9.38
2023-04-10T18:06:22.420Z,9.34
2023-04-10T18:08:50.562Z,9.30
2023-04-10T18:11:17.907Z,9.25
2023-04-10T18:13:46.523Z,9.17
2023-04-10T18:16:13.841Z,9.07
2023-04-10T18:18:42.720Z,8.98
2023-04-10T18:21:14.004Z,8.90
2023-04-10T18:23:41.834Z,8.85
2023-04-10T18:26:09.263Z,8.81
2023-04-10T18:28:38.285Z,8.74
2023-04-10T18:31:06.077Z,8.64
2023-04-10T18:33:35.136Z,8.46
2023-04-10T18:36:03.867Z,8.36
2023-04-10T18:38:31.577Z,8.19
2023-04-10T18:40:58.820Z,8.00
2023-04-10T18:43:30.271Z,7.92
2023-04-10T18:45:59.151Z,7.88
2023-04-10T18:48:26.586Z,7.88
2023-04-10T18:50:54.413Z,7.92
2023-04-10T18:53:25.058Z,7.95
2023-04-10T18:55:54.733Z,7.94
2023-04-10T18:58:23.289Z,7.85
2023-04-10T19:00:51.430Z,7.80
2023-04-10T19:03:19.642Z,7.76
2023-04-10T19:05:48.873Z,7.70
2023-04-10T19:08:18.076Z,7.66
2023-04-10T19:10:46.234Z,7.62
2023-04-10T19:13:13.977Z,7.60
2023-04-10T19:15:43.565Z,7.58
2023-04-10T19:18:13.117Z,7.58
2023-04-10T19:20:52.274Z,7.54
2023-04-10T19:23:21.627Z,7.51
2023-04-10T19:25:54.990Z,7.50
2023-04-10T19:28:24.543Z,7.49
2023-04-10T19:30:53.067Z,7.47
2023-04-10T19:33:21.737Z,7.46
2023-04-10T19:35:51.559Z,7.43
2023-04-10T19:38:19.368Z,7.40
2023-04-10T19:40:48.094Z,7.36
2023-04-10T19:43:15.324Z,7.33
2023-04-10T19:45:43.172Z,7.30
2023-04-10T19:48:11.348Z,7.27
2023-04-10T19:50:38.881Z,7.21
2023-04-10T19:53:06.287Z,7.16
2023-04-10T19:55:35.416Z,7.09
2023-04-10T19:58:02.746Z,7.06
2023-04-10T20:00:30.668Z,7.01
2023-04-10T20:02:59.142Z,6.96
2023-04-10T20:05:27.127Z,6.78
2023-04-10T20:07:54.465Z,6.62
2023-04-10T20:10:22.324Z,6.47
2023-04-10T20:12:49.530Z,6.29
2023-04-10T20:15:16.910Z,6.22
2023-04-10T20:17:44.446Z,6.10
2023-04-10T20:20:13.628Z,6.02
2023-04-10T20:22:40.927Z,5.95
2023-04-10T20:25:09.243Z,5.91
2023-04-10T20:27:36.321Z,5.82
2023-04-10T20:30:03.861Z,5.84
2023-04-10T20:32:31.571Z,5.90
2023-04-10T20:34:59.264Z,5.96
2023-04-10T20:37:26.497Z,6.02
2023-04-10T20:39:53.836Z,5.99
2023-04-10T20:42:21.420Z,5.86
2023-04-10T20:44:48.779Z,5.79
2023-04-10T20:47:16.346Z,5.81
2023-04-10T20:49:43.890Z,5.83
2023-04-10T20:52:11.381Z,5.83
2023-04-10T20:54:39.379Z,5.85
2023-04-10T20:57:06.704Z,5.86
2023-04-10T20:59:36.459Z,5.88
2023-04-10T21:02:04.556Z,5.88
2023-04-10T21:04:33.400Z,5.83
2023-04-10T21:07:00.792Z,5.83
2023-04-10T21:09:28.299Z,5.84
2023-04-10T21:11:55.869Z,5.81
2023-04-10T21:14:23.072Z,5.68
2023-04-10T21:16:50.904Z,5.61
2023-04-10T21:19:18.613Z,5.60
2023-04-10T21:21:45.897Z,5.59
2023-04-10T21:24:13.133Z,5.57
2023-04-10T21:26:40.673Z,5.53
2023-04-10T21:29:07.906Z,5.50
2023-04-10T21:31:36.067Z,5.48
2023-04-10T21:34:03.992Z,5.47
2023-04-10T21:36:31.666Z,5.48
2023-04-10T21:38:58.875Z,5.46
2023-04-10T21:41:27.591Z,5.38
2023-04-10T21:43:56.956Z,5.19
2023-04-10T21:46:24.706Z,5.05
2023-04-10T21:48:52.158Z,4.88
2023-04-10T21:51:19.442Z,4.74
2023-04-10T21:53:47.034Z,4.68
2023-04-10T21:56:14.465Z,4.69
2023-04-10T21:58:41.808Z,4.68
2023-04-10T22:01:09.629Z,4.65
2023-04-10T22:03:37.322Z,4.63
2023-04-10T22:06:04.731Z,4.58
2023-04-10T22:08:32.142Z,4.54
2023-04-10T22:10:59.328Z,4.43
2023-04-10T22:13:30.712Z,4.39
2023-04-10T22:16:02.775Z,4.38
2023-04-10T22:18:30.604Z,4.35
2023-04-10T22:20:58.086Z,4.27
2023-04-10T22:23:25.645Z,4.09
2023-04-10T22:25:52.818Z,3.87
2023-04-10T22:28:20.047Z,3.79
2023-04-10T22:30:47.587Z,3.78
2023-04-10T22:33:15.983Z,3.76
2023-04-10T22:35:43.240Z,3.75
2023-04-10T22:38:10.828Z,3.75
2023-04-10T22:40:38.176Z,3.75
2023-04-10T22:43:05.406Z,3.75
2023-04-10T22:45:32.960Z,3.71
2023-04-10T22:48:00.372Z,3.62
2023-04-10T22:50:27.633Z,3.58
2023-04-10T22:52:55.078Z,3.58
2023-04-10T22:55:22.619Z,3.56
2023-04-10T22:57:50.000Z,3.51
2023-04-10T23:00:17.676Z,3.48
2023-04-10T23:02:48.364Z,3.46
2023-04-10T23:05:15.857Z,3.41
2023-04-10T23:07:43.636Z,3.29
2023-04-10T23:10:11.037Z,3.23
2023-04-10T23:12:38.230Z,3.14
2023-04-10T23:15:07.664Z,2.92
2023-04-10T23:17:35.013Z,2.65
2023-04-10T23:20:02.415Z,2.53
2023-04-10T23:22:30.703Z,2.55
2023-04-10T23:24:58.437Z,2.58
2023-04-10T23:27:25.717Z,2.60
2023-04-10T23:29:53.428Z,2.62
2023-04-10T23:32:20.644Z,2.62
2023-04-10T23:34:47.877Z,2.59
2023-04-10T23:37:15.133Z,2.50
2023-04-10T23:39:42.350Z,2.35
2023-04-10T23:42:09.614Z,2.24
2023-04-10T23:44:37.330Z,2.18
2023-04-10T23:47:04.662Z,2.22
2023-04-10T23:49:32.041Z,2.31
2023-04-10T23:51:59.358Z,2.39
2023-04-10T23:54:26.679Z,2.44
2023-04-10T23:56:53.796Z,2.48
2023-04-10T23:59:21.375Z,2.52
